Time;durP1;ratioP1;P1;durP2;ratioP2;P2;SDS_P1;SDS_P2;PMS_P1;PMS_P2;Temp;Humidity;BMP_temperature;BMP_pressure;BME280_temperature;BME280_humidity;BME280_pressure;Samples;Min_cycle;Max_cycle;Signal;HPM_P1;HPM_P2
2022/08/21 00:01:16;;;;;;;;;;;24.90;68.80;;;;;;5096570;28;19920;-77
2022/08/21 00:03:41;;;;;;;;;;;24.80;69.10;;;;;;5096269;28;20346;-76
2022/08/21 00:06:07;;;;;;;;;;;24.80;69.10;;;;;;5094648;28;20007;-76
2022/08/21 00:08:33;;;;;;;;;;;24.70;69.50;;;;;;5095583;28;19920;-77
2022/08/21 00:10:58;;;;;;;;;;;24.60;69.30;;;;;;5095697;28;19951;-77
2022/08/21 00:13:24;;;;;;;;;;;24.60;69.80;;;;;;5096380;28;19908;-77
2022/08/21 00:15:49;;;;;;;;;;;24.50;69.50;;;;;;5096288;28;19915;-76
2022/08/21 00:18:16;;;;;;;;;;;24.50;69.50;;;;;;5095795;28;19916;-77
2022/08/21 00:20:42;;;;;;;;;;;24.40;69.50;;;;;;5095470;28;20251;-77
2022/08/21 00:23:08;;;;;;;;;;;24.40;69.40;;;;;;5095666;28;19908;-77
2022/08/21 00:25:33;;;;;;;;;;;24.40;69.60;;;;;;5095376;28;19915;-77
2022/08/21 00:27:59;;;;;;;;;;;24.30;69.50;;;;;;5095818;28;20308;-81
2022/08/21 00:30:25;;;;;;;;;;;24.30;69.50;;;;;;5095179;28;19908;-75
2022/08/21 00:32:52;;;;;;;;;;;24.20;69.60;;;;;;5094345;28;19919;-77
2022/08/21 00:35:19;;;;;;;;;;;24.20;69.30;;;;;;5095337;28;19958;-77
2022/08/21 00:37:44;;;;;;;;;;;24.20;69.50;;;;;;5095018;28;19916;-77
2022/08/21 00:40:12;;;;;;;;;;;24.20;70.00;;;;;;5094033;28;19919;-75
2022/08/21 00:42:38;;;;;;;;;;;24.10;69.40;;;;;;5095226;28;20381;-77
2022/08/21 00:45:05;;;;;;;;;;;24.10;69.50;;;;;;5095232;28;19908;-77
2022/08/21 00:47:30;;;;;;;;;;;24.10;69.40;;;;;;5095302;28;19955;-76
2022/08/21 00:49:56;;;;;;;;;;;24.00;69.50;;;;;;5095306;28;19954;-76
2022/08/21 00:52:28;;;;;;;;;;;24.00;69.50;;;;;;5095197;28;19915;-76
2022/08/21 00:54:54;;;;;;;;;;;24.00;70.00;;;;;;5095095;28;20278;-73
2022/08/21 00:57:22;;;;;;;;;;;24.00;69.70;;;;;;5094749;28;19912;-77
2022/08/21 00:59:50;;;;;;;;;;;23.90;69.50;;;;;;5093497;28;19912;-76
2022/08/21 01:02:16;;;;;;;;;;;23.90;69.50;;;;;;5094641;28;20042;-77
2022/08/21 01:04:42;;;;;;;;;;;23.90;70.00;;;;;;5094604;28;19985;-76
2022/08/21 01:07:08;;;;;;;;;;;23.80;69.40;;;;;;5094408;28;19909;-76
2022/08/21 01:09:34;;;;;;;;;;;23.80;69.60;;;;;;5094751;28;19977;-76
2022/08/21 01:12:00;;;;;;;;;;;23.80;69.60;;;;;;5093382;28;19912;-77
2022/08/21 01:14:25;;;;;;;;;;;23.80;69.60;;;;;;5094434;28;20282;-77
2022/08/21 01:16:52;;;;;;;;;;;23.70;69.50;;;;;;5094510;28;20354;-77
2022/08/21 01:19:19;;;;;;;;;;;23.70;69.70;;;;;;5094741;28;19998;-77
2022/08/21 01:21:45;;;;;;;;;;;23.70;69.60;;;;;;5094348;28;20007;-77
2022/08/21 01:24:11;;;;;;;;;;;23.70;69.60;;;;;;5093926;28;19959;-76
2022/08/21 01:26:36;;;;;;;;;;;23.70;69.70;;;;;;5094491;28;20291;-79
2022/08/21 01:29:02;;;;;;;;;;;23.70;69.60;;;;;;5094754;28;19995;-76
2022/08/21 01:31:28;;;;;;;;;;;23.60;69.40;;;;;;5094630;28;20281;-76
2022/08/21 01:33:54;;;;;;;;;;;23.60;69.70;;;;;;5094181;28;19915;-76
2022/08/21 01:36:20;;;;;;;;;;;23.60;69.40;;;;;;5094340;28;19916;-79
2022/08/21 01:38:47;;;;;;;;;;;23.50;69.30;;;;;;5094429;28;19912;-76
2022/08/21 01:41:12;;;;;;;;;;;23.50;69.30;;;;;;5094588;28;20012;-76
2022/08/21 01:43:38;;;;;;;;;;;23.60;69.30;;;;;;5094210;28;19908;-76
2022/08/21 01:46:04;;;;;;;;;;;23.60;69.40;;;;;;5094598;28;19919;-77
2022/08/21 01:48:29;;;;;;;;;;;23.60;69.40;;;;;;5094170;28;20369;-76
2022/08/21 01:50:55;;;;;;;;;;;23.50;69.30;;;;;;5094244;28;20372;-75
2022/08/21 01:53:21;;;;;;;;;;;23.50;69.30;;;;;;5093967;28;20504;-77
2022/08/21 01:55:47;;;;;;;;;;;23.50;69.50;;;;;;5094492;28;19970;-77
2022/08/21 01:58:12;;;;;;;;;;;23.50;69.30;;;;;;5094080;28;19919;-77
2022/08/21 02:00:38;;;;;;;;;;;23.50;69.30;;;;;;5094079;28;19908;-77
2022/08/21 02:03:03;;;;;;;;;;;23.50;69.40;;;;;;5094014;28;20401;-77
2022/08/21 02:05:29;;;;;;;;;;;23.40;69.50;;;;;;5094056;28;19931;-77
2022/08/21 02:07:55;;;;;;;;;;;23.40;69.20;;;;;;5093781;28;20358;-76
2022/08/21 02:10:26;;;;;;;;;;;23.40;69.30;;;;;;5094154;28;19912;-77
2022/08/21 02:12:52;;;;;;;;;;;23.40;69.30;;;;;;5094044;28;19908;-81
2022/08/21 02:15:18;;;;;;;;;;;23.30;69.40;;;;;;5092793;28;19908;-77
2022/08/21 02:17:46;;;;;;;;;;;23.40;69.30;;;;;;5093773;28;19916;-76
2022/08/21 02:20:14;;;;;;;;;;;23.40;69.20;;;;;;5096397;28;19919;-76
2022/08/21 02:22:40;;;;;;;;;;;23.30;69.30;;;;;;5098017;28;19908;-76
2022/08/21 02:25:06;;;;;;;;;;;23.30;69.30;;;;;;5096620;28;19974;-75
2022/08/21 02:27:37;;;;;;;;;;;23.30;69.40;;;;;;5097595;28;20315;-76
2022/08/21 02:30:03;;;;;;;;;;;23.30;69.50;;;;;;5097847;28;19953;-76
2022/08/21 02:32:28;;;;;;;;;;;23.30;69.40;;;;;;5097637;28;19909;-76
2022/08/21 02:34:54;;;;;;;;;;;23.30;69.50;;;;;;5097689;28;19933;-76
2022/08/21 02:37:19;;;;;;;;;;;23.30;69.50;;;;;;5098036;28;19920;-76
2022/08/21 02:39:45;;;;;;;;;;;23.30;69.70;;;;;;5097387;28;20366;-76
2022/08/21 02:42:10;;;;;;;;;;;23.30;69.80;;;;;;5096220;28;19908;-76
2022/08/21 02:44:36;;;;;;;;;;;23.30;69.70;;;;;;5097640;28;19908;-76
2022/08/21 02:47:01;;;;;;;;;;;23.20;70.20;;;;;;5097237;28;19908;-77
2022/08/21 02:49:27;;;;;;;;;;;23.20;69.70;;;;;;5097130;28;19912;-76
2022/08/21 02:51:52;;;;;;;;;;;23.20;70.40;;;;;;5097694;28;19956;-77
2022/08/21 02:54:18;;;;;;;;;;;23.30;69.80;;;;;;5097246;28;19915;-77
2022/08/21 02:56:44;;;;;;;;;;;23.30;69.80;;;;;;5097088;28;19912;-77
2022/08/21 02:59:09;;;;;;;;;;;23.20;69.80;;;;;;5097079;28;19919;-77
2022/08/21 03:01:36;;;;;;;;;;;23.20;69.80;;;;;;5097502;28;20419;-76
2022/08/21 03:04:02;;;;;;;;;;;23.20;70.10;;;;;;5097064;28;19935;-76
2022/08/21 03:06:29;;;;;;;;;;;23.20;70.00;;;;;;5097313;28;19962;-77
2022/08/21 03:08:54;;;;;;;;;;;23.20;69.90;;;;;;5096080;28;20423;-73
2022/08/21 03:11:20;;;;;;;;;;;23.20;69.90;;;;;;5095783;28;19908;-76
2022/08/21 03:13:46;;;;;;;;;;;23.20;69.80;;;;;;5095551;28;19908;-77
2022/08/21 03:16:12;;;;;;;;;;;23.20;70.00;;;;;;5096801;28;19916;-76
2022/08/21 03:18:37;;;;;;;;;;;23.20;69.80;;;;;;5096758;28;19916;-77
2022/08/21 03:21:03;;;;;;;;;;;23.20;69.70;;;;;;5097347;28;20402;-77
2022/08/21 03:23:30;;;;;;;;;;;23.10;69.70;;;;;;5095347;28;19908;-77
2022/08/21 03:25:55;;;;;;;;;;;23.10;69.90;;;;;;5095482;28;19961;-77
2022/08/21 03:28:21;;;;;;;;;;;23.10;69.70;;;;;;5095340;28;20007;-76
2022/08/21 03:30:48;;;;;;;;;;;23.10;69.70;;;;;;5094608;28;19908;-77
2022/08/21 03:33:14;;;;;;;;;;;23.10;69.80;;;;;;5096594;28;20243;-75
2022/08/21 03:35:40;;;;;;;;;;;23.10;69.80;;;;;;5096816;28;19919;-76
2022/08/21 03:38:06;;;;;;;;;;;23.10;69.70;;;;;;5098654;28;19965;-76
2022/08/21 03:40:31;;;;;;;;;;;23.10;69.70;;;;;;5096015;28;20300;-77
2022/08/21 03:42:58;;;;;;;;;;;23.10;69.70;;;;;;5094966;28;20019;-75
2022/08/21 03:45:23;;;;;;;;;;;23.10;69.60;;;;;;5094971;28;19955;-76
2022/08/21 03:47:57;;;;;;;;;;;23.10;69.70;;;;;;5096081;28;20331;-76
2022/08/21 03:50:27;;;;;;;;;;;23.10;69.70;;;;;;5095960;28;19915;-77
2022/08/21 03:52:52;;;;;;;;;;;23.10;69.60;;;;;;5096431;28;19991;-77
2022/08/21 03:55:18;;;;;;;;;;;23.20;69.70;;;;;;5095942;28;19962;-77
2022/08/21 03:57:44;;;;;;;;;;;23.20;69.70;;;;;;5094832;28;19912;-77
2022/08/21 04:00:11;;;;;;;;;;;23.20;69.70;;;;;;5094729;28;20358;-77
2022/08/21 04:02:37;;;;;;;;;;;23.20;69.70;;;;;;5094928;28;19998;-77
2022/08/21 04:05:03;;;;;;;;;;;23.20;69.70;;;;;;5096303;28;19962;-77
2022/08/21 04:07:29;;;;;;;;;;;23.20;69.80;;;;;;5095674;28;20326;-77
2022/08/21 04:09:54;;;;;;;;;;;23.20;69.90;;;;;;5095687;28;19994;-77
2022/08/21 04:12:20;;;;;;;;;;;23.20;69.80;;;;;;5095623;28;20281;-76
2022/08/21 04:14:46;;;;;;;;;;;23.30;70.00;;;;;;5095470;28;19908;-76
2022/08/21 04:17:11;;;;;;;;;;;23.30;70.20;;;;;;5095643;28;19958;-77
2022/08/21 04:19:37;;;;;;;;;;;23.30;70.40;;;;;;5095528;28;19911;-76
2022/08/21 04:22:03;;;;;;;;;;;23.30;70.00;;;;;;5095912;28;19908;-76
2022/08/21 04:24:28;;;;;;;;;;;23.30;70.10;;;;;;5094372;28;19908;-77
2022/08/21 04:26:54;;;;;;;;;;;23.30;70.10;;;;;;5094117;28;19916;-73
2022/08/21 04:29:20;;;;;;;;;;;23.30;70.00;;;;;;5094044;28;20394;-77
2022/08/21 04:31:45;;;;;;;;;;;23.30;69.90;;;;;;5096178;28;20243;-76
2022/08/21 04:34:11;;;;;;;;;;;23.40;69.90;;;;;;5095222;28;20358;-77
2022/08/21 04:36:36;;;;;;;;;;;23.40;70.00;;;;;;5094982;28;19939;-76
2022/08/21 04:39:02;;;;;;;;;;;23.40;69.90;;;;;;5095619;28;20410;-77
2022/08/21 04:41:28;;;;;;;;;;;23.50;69.80;;;;;;5094430;28;19912;-77
2022/08/21 04:43:55;;;;;;;;;;;23.50;69.80;;;;;;5094842;28;19912;-75
2022/08/21 04:46:20;;;;;;;;;;;23.50;69.80;;;;;;5095155;28;19909;-76
2022/08/21 04:48:46;;;;;;;;;;;23.50;69.70;;;;;;5094991;28;19920;-73
2022/08/21 04:51:15;;;;;;;;;;;23.50;69.60;;;;;;5094934;28;19999;-76
2022/08/21 04:53:43;;;;;;;;;;;23.60;69.60;;;;;;5095079;28;19951;-76
2022/08/21 04:56:20;;;;;;;;;;;23.60;69.40;;;;;;5093435;28;19935;-74
2022/08/21 04:58:46;;;;;;;;;;;23.60;69.40;;;;;;5093709;28;19965;-77
2022/08/21 05:01:15;;;;;;;;;;;23.60;69.40;;;;;;5093646;28;19956;-76
2022/08/21 05:03:41;;;;;;;;;;;23.70;69.50;;;;;;5094719;28;19991;-77
2022/08/21 05:06:08;;;;;;;;;;;23.70;69.40;;;;;;5094915;28;20015;-77
2022/08/21 05:08:33;;;;;;;;;;;23.70;69.10;;;;;;5094635;28;19920;-77
2022/08/21 05:10:59;;;;;;;;;;;23.70;69.20;;;;;;5093218;28;20274;-75
2022/08/21 05:13:24;;;;;;;;;;;23.70;69.20;;;;;;5093421;28;20360;-73
2022/08/21 05:15:50;;;;;;;;;;;23.80;69.20;;;;;;5094850;28;19915;-76
2022/08/21 05:18:16;;;;;;;;;;;23.80;69.20;;;;;;5094451;28;19916;-75
2022/08/21 05:20:42;;;;;;;;;;;23.80;69.20;;;;;;5094429;28;19912;-76
2022/08/21 05:23:11;;;;;;;;;;;23.80;69.00;;;;;;5093101;28;20423;-77
2022/08/21 05:25:37;;;;;;;;;;;23.80;68.90;;;;;;5092942;28;19909;-77
2022/08/21 05:28:02;;;;;;;;;;;23.80;68.90;;;;;;5092980;28;19930;-76
2022/08/21 05:30:28;;;;;;;;;;;23.80;68.80;;;;;;5092972;28;19915;-77
2022/08/21 05:32:58;;;;;;;;;;;23.90;68.70;;;;;;5094180;28;20029;-77
2022/08/21 05:35:24;;;;;;;;;;;23.90;68.60;;;;;;5094513;28;20251;-76
2022/08/21 05:37:49;;;;;;;;;;;23.90;68.50;;;;;;5093027;28;19924;-77
2022/08/21 05:40:15;;;;;;;;;;;23.90;68.50;;;;;;5092735;28;19913;-75
2022/08/21 05:42:40;;;;;;;;;;;23.90;68.40;;;;;;5094009;28;19908;-76
2022/08/21 05:45:06;;;;;;;;;;;23.90;68.80;;;;;;5094238;28;20274;-73
2022/08/21 05:47:31;;;;;;;;;;;24.00;69.30;;;;;;5094078;28;19912;-76
2022/08/21 05:49:57;;;;;;;;;;;24.00;68.30;;;;;;5092853;28;19915;-84
2022/08/21 05:52:23;;;;;;;;;;;24.00;68.20;;;;;;5092852;28;20320;-77
2022/08/21 05:54:48;;;;;;;;;;;23.90;67.90;;;;;;5097581;28;19951;-79
2022/08/21 05:57:14;;;;;;;;;;;24.00;68.00;;;;;;5098310;28;19919;-79
2022/08/21 05:59:40;;;;;;;;;;;24.00;68.60;;;;;;5098421;28;19912;-80
2022/08/21 06:02:07;;;;;;;;;;;24.00;68.00;;;;;;5098836;28;19961;-81
2022/08/21 06:04:37;;;;;;;;;;;24.00;67.80;;;;;;5098399;28;20003;-80
2022/08/21 06:07:02;;;;;;;;;;;24.00;67.80;;;;;;5096924;28;20015;-78
2022/08/21 06:09:28;;;;;;;;;;;24.00;67.80;;;;;;5098545;28;20338;-79
2022/08/21 06:11:55;;;;;;;;;;;24.00;67.90;;;;;;5096307;28;20454;-80
2022/08/21 06:14:21;;;;;;;;;;;24.00;67.90;;;;;;5097925;28;20362;-80
2022/08/21 06:16:46;;;;;;;;;;;24.10;67.90;;;;;;5098935;28;19912;-79
2022/08/21 06:19:12;;;;;;;;;;;24.10;67.80;;;;;;5098096;28;20374;-79
2022/08/21 06:21:38;;;;;;;;;;;24.10;67.70;;;;;;5096945;28;19908;-81
2022/08/21 06:24:04;;;;;;;;;;;24.10;67.70;;;;;;5096246;28;20351;-79
2022/08/21 06:26:30;;;;;;;;;;;24.10;67.70;;;;;;5096567;28;19908;-78
2022/08/21 06:28:56;;;;;;;;;;;24.10;67.70;;;;;;5097879;28;20367;-80
2022/08/21 06:31:24;;;;;;;;;;;24.20;67.70;;;;;;5098225;28;19950;-79
2022/08/21 06:33:50;;;;;;;;;;;24.20;67.70;;;;;;5096428;28;19915;-78
2022/08/21 06:36:16;;;;;;;;;;;24.20;67.60;;;;;;5096399;28;19920;-78
2022/08/21 06:38:41;;;;;;;;;;;24.20;68.30;;;;;;5096612;28;20262;-79
2022/08/21 06:41:07;;;;;;;;;;;24.20;67.60;;;;;;5096448;28;19908;-80
2022/08/21 06:43:33;;;;;;;;;;;24.20;67.50;;;;;;5097575;28;19915;-80
2022/08/21 06:45:58;;;;;;;;;;;24.20;67.50;;;;;;5097730;28;20003;-80
2022/08/21 06:48:24;;;;;;;;;;;24.20;67.50;;;;;;5097635;28;20377;-80
2022/08/21 06:50:49;;;;;;;;;;;24.20;67.50;;;;;;5097510;28;20364;-81
2022/08/21 06:53:17;;;;;;;;;;;24.20;67.40;;;;;;5097736;28;19962;-80
2022/08/21 06:55:42;;;;;;;;;;;24.20;67.40;;;;;;5097817;28;19952;-80
2022/08/21 06:58:08;;;;;;;;;;;24.30;67.40;;;;;;5097380;28;19958;-79
2022/08/21 07:00:34;;;;;;;;;;;24.30;67.40;;;;;;5097476;28;20373;-79
2022/08/21 07:03:01;;;;;;;;;;;24.20;67.40;;;;;;5097232;28;19908;-81
2022/08/21 07:05:28;;;;;;;;;;;24.30;67.50;;;;;;5094847;28;19912;-79
2022/08/21 07:07:54;;;;;;;;;;;24.30;67.40;;;;;;5095771;28;19931;-80
2022/08/21 07:10:19;;;;;;;;;;;24.20;67.40;;;;;;5096914;28;19908;-86
2022/08/21 07:12:45;;;;;;;;;;;24.20;67.40;;;;;;5096337;28;19908;-80
2022/08/21 07:15:10;;;;;;;;;;;24.20;67.40;;;;;;5097148;28;20354;-76
2022/08/21 07:17:36;;;;;;;;;;;24.30;67.40;;;;;;5095601;28;19912;-80
2022/08/21 07:20:03;;;;;;;;;;;24.30;67.30;;;;;;5096743;28;19916;-79
2022/08/21 07:22:28;;;;;;;;;;;24.20;67.30;;;;;;5096594;28;20418;-80
2022/08/21 07:24:54;;;;;;;;;;;24.30;67.30;;;;;;5095702;28;19987;-90
2022/08/21 07:27:20;;;;;;;;;;;24.30;67.30;;;;;;5097084;28;19916;-82
2022/08/21 07:29:46;;;;;;;;;;;24.30;67.20;;;;;;5098191;28;19909;-90
2022/08/21 07:32:11;;;;;;;;;;;24.30;67.70;;;;;;5096790;28;20433;-83
2022/08/21 07:34:37;;;;;;;;;;;24.30;67.70;;;;;;5096656;28;19958;-80
2022/08/21 07:37:02;;;;;;;;;;;24.40;67.50;;;;;;5095293;28;19923;-84
2022/08/21 07:39:28;;;;;;;;;;;24.50;67.30;;;;;;5095236;28;20286;-77
2022/08/21 07:41:53;;;;;;;;;;;24.60;67.10;;;;;;5097423;28;19993;-76
2022/08/21 07:44:19;;;;;;;;;;;24.70;66.90;;;;;;5115077;28;20353;-73
2022/08/21 07:46:45;;;;;;;;;;;24.70;66.80;;;;;;5113911;28;19998;-74
2022/08/21 07:49:10;;;;;;;;;;;24.80;66.70;;;;;;5115152;28;20354;-75
2022/08/21 07:51:36;;;;;;;;;;;24.90;66.60;;;;;;5114872;28;19912;-75
2022/08/21 07:54:01;;;;;;;;;;;25.00;66.50;;;;;;5115098;28;19934;-74
2022/08/21 07:56:27;;;;;;;;;;;25.00;66.30;;;;;;5113620;28;19912;-74
2022/08/21 07:58:53;;;;;;;;;;;25.10;66.20;;;;;;5115058;28;19912;-77
2022/08/21 08:01:19;;;;;;;;;;;25.10;66.00;;;;;;5114857;28;19914;-73
2022/08/21 08:03:45;;;;;;;;;;;25.20;65.70;;;;;;5114958;28;20277;-75
2022/08/21 08:06:12;;;;;;;;;;;25.20;65.70;;;;;;5113309;28;19908;-73
2022/08/21 08:08:41;;;;;;;;;;;25.30;65.70;;;;;;5114663;28;19927;-75
2022/08/21 08:11:07;;;;;;;;;;;25.30;65.60;;;;;;5114539;28;19980;-75
2022/08/21 08:13:38;;;;;;;;;;;25.40;65.60;;;;;;5113231;28;20002;-74
2022/08/21 08:16:03;;;;;;;;;;;25.40;65.50;;;;;;5113264;28;19915;-74
2022/08/21 08:18:29;;;;;;;;;;;25.40;65.50;;;;;;5114412;28;19916;-72
2022/08/21 08:20:54;;;;;;;;;;;25.50;65.40;;;;;;5114934;28;19930;-74
2022/08/21 08:23:20;;;;;;;;;;;25.50;65.30;;;;;;5114410;28;19912;-74
2022/08/21 08:25:46;;;;;;;;;;;25.50;65.10;;;;;;5115177;28;19907;-74
2022/08/21 08:28:11;;;;;;;;;;;25.60;65.20;;;;;;5114328;28;19920;-74
2022/08/21 08:30:37;;;;;;;;;;;25.60;65.00;;;;;;5113253;28;20243;-74
2022/08/21 08:33:02;;;;;;;;;;;25.60;64.90;;;;;;5112921;28;20263;-74
2022/08/21 08:35:29;;;;;;;;;;;25.60;64.80;;;;;;5113201;28;19947;-76
2022/08/21 08:41:18;;;;;;;;;;;25.60;64.80;;;;;;5115511;28;19934;-75
2022/08/21 08:43:49;;;;;;;;;;;25.70;64.20;;;;;;5114113;28;20583;-74
2022/08/21 08:46:15;;;;;;;;;;;25.70;64.50;;;;;;5115528;28;19937;-73
2022/08/21 08:48:44;;;;;;;;;;;25.60;64.50;;;;;;5115176;28;19914;-74
2022/08/21 08:51:15;;;;;;;;;;;25.70;64.70;;;;;;5113717;28;20278;-74
2022/08/21 08:53:50;;;;;;;;;;;25.70;64.40;;;;;;5114254;28;19908;-74
2022/08/21 08:56:18;;;;;;;;;;;25.70;64.50;;;;;;5113789;28;19908;-74
2022/08/21 08:58:44;;;;;;;;;;;25.70;64.50;;;;;;5114455;28;19916;-74
2022/08/21 09:01:17;;;;;;;;;;;25.70;64.40;;;;;;5115145;28;19908;-74
2022/08/21 09:03:43;;;;;;;;;;;25.70;64.20;;;;;;5115147;28;19908;-73
2022/08/21 09:06:26;;;;;;;;;;;25.70;64.20;;;;;;5114957;28;19954;-75
2022/08/21 09:09:01;;;;;;;;;;;25.70;64.40;;;;;;5114774;28;20400;-74
2022/08/21 09:11:29;;;;;;;;;;;25.80;64.30;;;;;;5114236;28;20301;-74
2022/08/21 09:14:28;;;;;;;;;;;25.80;64.30;;;;;;5113816;28;19943;-75
2022/08/21 09:17:14;;;;;;;;;;;25.90;64.20;;;;;;5094490;28;19918;-74
2022/08/21 09:19:55;;;;;;;;;;;25.90;64.30;;;;;;5087032;28;20347;-75
2022/08/21 09:22:24;;;;;;;;;;;25.90;63.80;;;;;;5094553;28;19908;-75
2022/08/21 09:24:50;;;;;;;;;;;26.00;63.90;;;;;;5093119;28;20019;-74
2022/08/21 09:27:17;;;;;;;;;;;26.00;63.60;;;;;;5092835;28;19943;-74
2022/08/21 09:29:44;;;;;;;;;;;26.00;63.70;;;;;;5092462;28;19919;-74
2022/08/21 09:32:17;;;;;;;;;;;26.00;63.40;;;;;;5092422;28;19995;-75
2022/08/21 09:34:54;;;;;;;;;;;26.00;63.30;;;;;;5094348;28;19962;-74
2022/08/21 09:37:19;;;;;;;;;;;26.00;63.60;;;;;;5094019;28;19916;-74
2022/08/21 09:39:45;;;;;;;;;;;26.00;63.60;;;;;;5094164;28;19919;-73
2022/08/21 09:42:11;;;;;;;;;;;26.10;63.40;;;;;;5094243;28;19915;-73
2022/08/21 09:44:42;;;;;;;;;;;26.10;63.10;;;;;;5094683;28;19908;-73
2022/08/21 09:47:09;;;;;;;;;;;26.10;63.10;;;;;;5094410;28;19915;-74
2022/08/21 09:49:39;;;;;;;;;;;26.10;63.10;;;;;;5093079;28;20270;-74
2022/08/21 09:52:13;;;;;;;;;;;26.10;63.20;;;;;;5094444;28;19919;-74
2022/08/21 09:54:40;;;;;;;;;;;26.20;62.90;;;;;;5094266;28;19922;-73
2022/08/21 09:59:53;;;;;;;;;;;26.20;63.00;;;;;;5093970;28;19957;-73
2022/08/21 10:02:19;;;;;;;;;;;26.20;63.00;;;;;;5092562;28;20251;-73
2022/08/21 10:04:49;;;;;;;;;;;26.20;62.90;;;;;;5092231;28;19908;-73
2022/08/21 10:07:14;;;;;;;;;;;26.30;62.80;;;;;;5093630;28;19988;-74
2022/08/21 10:09:40;;;;;;;;;;;26.30;62.80;;;;;;5093784;28;19924;-74
2022/08/21 10:12:06;;;;;;;;;;;26.30;62.90;;;;;;5093873;28;20034;-74
2022/08/21 10:14:31;;;;;;;;;;;26.40;63.00;;;;;;5092291;28;19920;-74
2022/08/21 10:17:20;;;;;;;;;;;26.40;62.60;;;;;;5093567;28;19912;-74
2022/08/21 10:20:05;;;;;;;;;;;26.40;62.90;;;;;;5087521;28;19939;-74
2022/08/21 10:22:31;;;;;;;;;;;26.40;62.50;;;;;;5093559;28;19915;-74
2022/08/21 10:25:08;;;;;;;;;;;26.50;62.40;;;;;;5093516;28;19908;-74
2022/08/21 10:27:39;;;;;;;;;;;26.50;62.60;;;;;;5093697;28;20090;-75
2022/08/21 10:30:17;;;;;;;;;;;26.50;62.30;;;;;;5093969;28;20372;-75
2022/08/21 10:33:15;;;;;;;;;;;26.60;62.10;;;;;;5093566;28;19912;-74
2022/08/21 10:35:59;;;;;;;;;;;26.60;62.30;;;;;;5069939;28;19965;-74
2022/08/21 10:38:39;;;;;;;;;;;26.60;62.10;;;;;;5092242;28;19921;-75
2022/08/21 10:41:14;;;;;;;;;;;26.60;61.90;;;;;;5096012;28;19912;-74
2022/08/21 10:43:45;;;;;;;;;;;26.70;61.80;;;;;;5096251;28;19909;-74
2022/08/21 10:46:13;;;;;;;;;;;26.70;61.50;;;;;;5097104;28;19915;-75
2022/08/21 10:48:46;;;;;;;;;;;26.70;61.60;;;;;;5097051;28;19908;-73
2022/08/21 10:51:17;;;;;;;;;;;26.80;61.70;;;;;;5097258;28;19920;-74
2022/08/21 10:53:49;;;;;;;;;;;26.70;61.00;;;;;;5095892;28;19908;-75
2022/08/21 10:56:17;;;;;;;;;;;26.80;61.00;;;;;;5097027;28;19912;-75
2022/08/21 10:59:03;;;;;;;;;;;26.80;60.90;;;;;;5096792;28;20397;-74
2022/08/21 11:01:33;;;;;;;;;;;26.80;61.00;;;;;;5089192;28;19908;-74
2022/08/21 11:04:15;;;;;;;;;;;26.80;60.80;;;;;;5097506;28;19916;-74
2022/08/21 11:06:44;;;;;;;;;;;26.80;60.80;;;;;;5096886;28;19995;-74
2022/08/21 11:09:15;;;;;;;;;;;26.90;60.80;;;;;;5088891;28;19920;-74
2022/08/21 11:11:52;;;;;;;;;;;26.90;60.90;;;;;;5096411;28;19961;-74
2022/08/21 11:14:30;;;;;;;;;;;26.90;60.40;;;;;;5096983;28;19917;-74
2022/08/21 11:17:16;;;;;;;;;;;26.90;60.70;;;;;;5096444;28;19912;-74
2022/08/21 11:19:49;;;;;;;;;;;27.00;60.40;;;;;;5096100;28;19916;-73
2022/08/21 11:22:18;;;;;;;;;;;27.00;60.50;;;;;;5097075;28;19994;-74
2022/08/21 11:24:48;;;;;;;;;;;27.00;60.20;;;;;;5096523;28;20007;-74
2022/08/21 11:27:14;;;;;;;;;;;27.00;60.00;;;;;;5096332;28;20350;-74
2022/08/21 11:29:41;;;;;;;;;;;27.00;60.20;;;;;;5096468;28;19909;-74
2022/08/21 11:32:22;;;;;;;;;;;27.10;60.00;;;;;;5096365;28;19915;-74
2022/08/21 11:34:47;;;;;;;;;;;27.10;60.50;;;;;;5096726;28;19908;-74
2022/08/21 11:37:32;;;;;;;;;;;27.10;60.40;;;;;;5096767;28;19931;-74
2022/08/21 11:40:03;;;;;;;;;;;27.10;60.30;;;;;;5096393;28;19919;-74
2022/08/21 11:42:32;;;;;;;;;;;27.10;60.30;;;;;;5096401;28;19909;-74
2022/08/21 11:45:16;;;;;;;;;;;27.20;60.40;;;;;;5096207;28;19987;-74
2022/08/21 11:47:47;;;;;;;;;;;27.20;60.30;;;;;;5096251;28;19913;-73
2022/08/21 11:50:20;;;;;;;;;;;27.20;60.20;;;;;;5096065;28;19908;-74
2022/08/21 11:52:49;;;;;;;;;;;27.20;60.30;;;;;;5095735;28;19908;-79
2022/08/21 11:55:30;;;;;;;;;;;27.30;60.50;;;;;;5094803;28;19909;-74
2022/08/21 11:57:59;;;;;;;;;;;27.30;60.40;;;;;;5095196;28;19926;-75
2022/08/21 12:00:35;;;;;;;;;;;27.30;60.10;;;;;;5095981;28;20274;-74
2022/08/21 12:03:13;;;;;;;;;;;27.40;60.10;;;;;;5095888;28;20386;-75
2022/08/21 12:05:52;;;;;;;;;;;27.40;60.40;;;;;;5095491;28;20381;-75
2022/08/21 12:08:35;;;;;;;;;;;27.40;60.20;;;;;;5095725;28;19908;-74
2022/08/21 12:11:00;;;;;;;;;;;27.50;60.10;;;;;;5094615;28;19915;-75
2022/08/21 12:13:31;;;;;;;;;;;27.50;60.10;;;;;;5095871;28;19909;-75
2022/08/21 12:16:26;;;;;;;;;;;27.50;60.10;;;;;;5095409;28;19908;-74
2022/08/21 12:19:01;;;;;;;;;;;27.50;60.10;;;;;;5080833;28;19916;-76
2022/08/21 12:21:27;;;;;;;;;;;27.60;60.00;;;;;;5095840;28;19912;-75
2022/08/21 12:24:00;;;;;;;;;;;27.60;59.80;;;;;;5095350;28;19923;-75
2022/08/21 12:26:33;;;;;;;;;;;27.60;59.90;;;;;;5095357;28;19908;-75
2022/08/21 12:29:09;;;;;;;;;;;27.60;59.70;;;;;;5094182;28;20297;-75
2022/08/21 12:31:35;;;;;;;;;;;27.70;59.80;;;;;;5094503;28;19914;-76
2022/08/21 12:34:04;;;;;;;;;;;27.70;59.70;;;;;;5095236;28;20273;-75
2022/08/21 12:36:38;;;;;;;;;;;27.80;59.70;;;;;;5093830;28;19920;-75
2022/08/21 12:39:10;;;;;;;;;;;27.80;59.70;;;;;;5095557;28;20108;-76
2022/08/21 12:41:56;;;;;;;;;;;27.80;59.70;;;;;;5093950;28;19957;-75
2022/08/21 12:44:30;;;;;;;;;;;27.90;59.40;;;;;;5094657;28;19914;-75
2022/08/21 12:46:58;;;;;;;;;;;28.00;59.10;;;;;;5093959;28;20015;-77
2022/08/21 12:49:43;;;;;;;;;;;28.00;59.10;;;;;;5094942;28;19913;-74
2022/08/21 12:52:46;;;;;;;;;;;28.10;59.40;;;;;;5094528;28;20320;-74
2022/08/21 12:55:15;;;;;;;;;;;28.10;59.40;;;;;;5093726;28;19919;-74
2022/08/21 12:57:41;;;;;;;;;;;28.20;60.00;;;;;;5094498;28;20388;-75
2022/08/21 13:00:14;;;;;;;;;;;28.30;59.40;;;;;;5094718;28;19982;-75
2022/08/21 13:02:46;;;;;;;;;;;28.40;59.40;;;;;;5093077;28;19908;-71
2022/08/21 13:05:19;;;;;;;;;;;28.40;59.20;;;;;;5093338;28;19971;-75
2022/08/21 13:07:46;;;;;;;;;;;28.50;59.00;;;;;;5094471;28;19912;-74
2022/08/21 13:10:23;;;;;;;;;;;28.60;58.80;;;;;;5094946;28;19924;-75
2022/08/21 13:12:49;;;;;;;;;;;28.70;58.80;;;;;;5094774;28;19908;-74
2022/08/21 13:15:22;;;;;;;;;;;28.80;58.90;;;;;;5094749;28;19915;-75
2022/08/21 13:17:48;;;;;;;;;;;28.90;58.50;;;;;;5094749;28;20006;-75
2022/08/21 13:20:25;;;;;;;;;;;29.00;58.60;;;;;;5093168;28;20320;-75
2022/08/21 13:22:51;;;;;;;;;;;29.10;58.50;;;;;;5093323;28;19908;-75
2022/08/21 13:25:19;;;;;;;;;;;29.20;58.70;;;;;;5094408;28;20274;-75
2022/08/21 13:27:56;;;;;;;;;;;29.40;58.20;;;;;;5094426;28;20385;-75
2022/08/21 13:30:22;;;;;;;;;;;29.60;58.10;;;;;;5094679;28;19912;-75
2022/08/21 13:32:51;;;;;;;;;;;29.90;58.20;;;;;;5092800;28;19955;-75
2022/08/21 13:35:19;;;;;;;;;;;30.30;58.20;;;;;;5092983;28;20278;-75
2022/08/21 13:37:46;;;;;;;;;;;30.80;57.70;;;;;;5092996;28;19916;-75
2022/08/21 13:40:16;;;;;;;;;;;31.20;57.90;;;;;;5094415;28;19923;-75
2022/08/21 13:42:44;;;;;;;;;;;31.60;57.40;;;;;;5094157;28;19912;-74
2022/08/21 13:45:14;;;;;;;;;;;32.00;57.20;;;;;;5092628;28;19908;-74
2022/08/21 13:47:39;;;;;;;;;;;32.40;56.20;;;;;;5093823;28;19915;-74
2022/08/21 13:50:07;;;;;;;;;;;32.70;56.30;;;;;;5094108;28;19912;-75
2022/08/21 13:52:32;;;;;;;;;;;33.10;56.50;;;;;;5094702;28;19911;-76
2022/08/21 13:55:00;;;;;;;;;;;33.40;55.90;;;;;;5094052;28;19931;-76
2022/08/21 13:57:31;;;;;;;;;;;33.70;55.00;;;;;;5094063;28;19912;-73
2022/08/21 14:00:15;;;;;;;;;;;33.90;55.50;;;;;;5092696;28;20028;-75
2022/08/21 14:02:43;;;;;;;;;;;34.10;54.50;;;;;;5093457;28;20262;-75
2022/08/21 14:05:15;;;;;;;;;;;34.20;55.00;;;;;;5093162;28;20332;-75
2022/08/21 14:07:42;;;;;;;;;;;34.10;54.30;;;;;;5092886;28;19915;-74
2022/08/21 14:10:30;;;;;;;;;;;34.10;55.10;;;;;;5092318;28;20019;-75
2022/08/21 14:13:00;;;;;;;;;;;34.10;54.90;;;;;;5094478;28;19908;-74
2022/08/21 14:15:30;;;;;;;;;;;34.20;54.90;;;;;;5095479;28;19951;-75
2022/08/21 14:18:09;;;;;;;;;;;34.20;53.00;;;;;;5097687;28;19912;-75
2022/08/21 14:20:35;;;;;;;;;;;34.30;54.40;;;;;;5096659;28;19965;-75
2022/08/21 14:23:01;;;;;;;;;;;34.60;53.20;;;;;;5097643;28;19909;-75
2022/08/21 14:25:26;;;;;;;;;;;34.70;52.80;;;;;;5097971;28;19915;-75
2022/08/21 14:27:54;;;;;;;;;;;35.00;51.70;;;;;;5097475;28;19939;-75
2022/08/21 14:30:30;;;;;;;;;;;35.30;52.10;;;;;;5097346;28;19962;-74